sensor_id;sensor_type;location;lat;lon;timestamp;P1;durP1;ratioP1;P2;durP2;ratioP2
56752;SDS011;42627;42.646;23.642;2022-12-16T00:00:19;39.15;;;19.73;;
56752;SDS011;42627;42.646;23.642;2022-12-16T00:02:21;47.38;;;18.50;;
56752;SDS011;42627;42.646;23.642;2022-12-16T00:04:27;42.15;;;18.13;;
56752;SDS011;42627;42.646;23.642;2022-12-16T00:06:29;39.50;;;16.80;;
56752;SDS011;42627;42.646;23.642;2022-12-16T00:08:31;37.75;;;16.92;;
56752;SDS011;42627;42.646;23.642;2022-12-16T00:10:32;40.78;;;17.20;;
56752;SDS011;42627;42.646;23.642;2022-12-16T00:12:52;36.35;;;18.00;;
56752;SDS011;42627;42.646;23.642;2022-12-16T00:14:55;32.47;;;17.27;;
56752;SDS011;42627;42.646;23.642;2022-12-16T00:16:59;35.95;;;14.70;;
56752;SDS011;42627;42.646;23.642;2022-12-16T00:19:01;53.63;;;18.38;;
56752;SDS011;42627;42.646;23.642;2022-12-16T00:21:03;43.90;;;16.95;;
56752;SDS011;42627;42.646;23.642;2022-12-16T00:23:04;34.55;;;15.88;;
56752;SDS011;42627;42.646;23.642;2022-12-16T00:25:05;48.00;;;17.42;;
56752;SDS011;42627;42.646;23.642;2022-12-16T00:27:06;43.00;;;17.67;;
56752;SDS011;42627;42.646;23.642;2022-12-16T00:29:07;33.53;;;15.35;;
56752;SDS011;42627;42.646;23.642;2022-12-16T00:31:10;38.38;;;14.02;;
56752;SDS011;42627;42.646;23.642;2022-12-16T00:33:11;47.35;;;15.13;;
56752;SDS011;42627;42.646;23.642;2022-12-16T00:35:12;35.63;;;15.50;;
56752;SDS011;42627;42.646;23.642;2022-12-16T00:37:13;27.33;;;15.35;;
56752;SDS011;42627;42.646;23.642;2022-12-16T00:39:14;34.78;;;14.02;;
56752;SDS011;42627;42.646;23.642;2022-12-16T00:41:15;45.28;;;17.30;;
56752;SDS011;42627;42.646;23.642;2022-12-16T00:43:16;37.05;;;15.52;;
56752;SDS011;42627;42.646;23.642;2022-12-16T00:45:18;46.03;;;18.52;;
56752;SDS011;42627;42.646;23.642;2022-12-16T00:47:19;58.10;;;21.48;;
56752;SDS011;42627;42.646;23.642;2022-12-16T00:49:20;60.70;;;23.25;;
56752;SDS011;42627;42.646;23.642;2022-12-16T00:51:21;78.35;;;23.92;;
56752;SDS011;42627;42.646;23.642;2022-12-16T00:53:23;57.22;;;20.17;;
56752;SDS011;42627;42.646;23.642;2022-12-16T00:55:24;39.38;;;18.35;;
56752;SDS011;42627;42.646;23.642;2022-12-16T00:57:26;39.88;;;17.92;;
56752;SDS011;42627;42.646;23.642;2022-12-16T00:59:27;41.90;;;20.23;;
56752;SDS011;42627;42.646;23.642;2022-12-16T01:01:28;58.03;;;24.23;;
56752;SDS011;42627;42.646;23.642;2022-12-16T01:12:11;35.85;;;17.90;;
56752;SDS011;42627;42.646;23.642;2022-12-16T01:14:12;29.73;;;15.43;;
56752;SDS011;42627;42.646;23.642;2022-12-16T01:16:14;33.13;;;16.75;;
56752;SDS011;42627;42.646;23.642;2022-12-16T01:18:17;33.17;;;14.15;;
56752;SDS011;42627;42.646;23.642;2022-12-16T01:20:18;35.28;;;13.27;;
56752;SDS011;42627;42.646;23.642;2022-12-16T01:22:19;32.55;;;14.20;;
56752;SDS011;42627;42.646;23.642;2022-12-16T01:24:20;30.90;;;13.57;;
56752;SDS011;42627;42.646;23.642;2022-12-16T01:26:21;38.60;;;15.07;;
56752;SDS011;42627;42.646;23.642;2022-12-16T01:28:23;34.45;;;14.60;;
56752;SDS011;42627;42.646;23.642;2022-12-16T01:30:24;23.05;;;13.63;;
56752;SDS011;42627;42.646;23.642;2022-12-16T01:32:25;29.30;;;16.58;;
56752;SDS011;42627;42.646;23.642;2022-12-16T01:34:26;30.05;;;13.75;;
56752;SDS011;42627;42.646;23.642;2022-12-16T01:36:27;23.67;;;11.35;;
56752;SDS011;42627;42.646;23.642;2022-12-16T01:38:28;41.30;;;16.88;;
56752;SDS011;42627;42.646;23.642;2022-12-16T01:40:29;23.70;;;10.02;;
56752;SDS011;42627;42.646;23.642;2022-12-16T01:42:30;26.13;;;14.00;;
56752;SDS011;42627;42.646;23.642;2022-12-16T01:44:32;26.77;;;11.88;;
56752;SDS011;42627;42.646;23.642;2022-12-16T01:46:33;24.00;;;10.85;;
56752;SDS011;42627;42.646;23.642;2022-12-16T01:48:50;21.42;;;9.75;;
56752;SDS011;42627;42.646;23.642;2022-12-16T01:50:52;21.58;;;10.27;;
56752;SDS011;42627;42.646;23.642;2022-12-16T01:53:00;19.13;;;10.30;;
56752;SDS011;42627;42.646;23.642;2022-12-16T01:55:06;16.60;;;9.57;;
56752;SDS011;42627;42.646;23.642;2022-12-16T01:57:11;17.08;;;8.60;;
56752;SDS011;42627;42.646;23.642;2022-12-16T01:59:13;26.35;;;11.57;;
56752;SDS011;42627;42.646;23.642;2022-12-16T02:01:14;17.25;;;9.48;;
56752;SDS011;42627;42.646;23.642;2022-12-16T02:03:16;18.35;;;8.82;;
56752;SDS011;42627;42.646;23.642;2022-12-16T02:05:17;9.23;;;6.22;;
56752;SDS011;42627;42.646;23.642;2022-12-16T02:07:21;13.13;;;6.32;;
56752;SDS011;42627;42.646;23.642;2022-12-16T02:09:22;10.93;;;6.32;;
56752;SDS011;42627;42.646;23.642;2022-12-16T02:11:29;13.18;;;7.60;;
56752;SDS011;42627;42.646;23.642;2022-12-16T02:20:09;15.25;;;6.70;;
56752;SDS011;42627;42.646;23.642;2022-12-16T02:39:12;22.67;;;8.65;;
56752;SDS011;42627;42.646;23.642;2022-12-16T02:41:21;14.93;;;7.20;;
56752;SDS011;42627;42.646;23.642;2022-12-16T02:45:30;21.10;;;9.30;;
56752;SDS011;42627;42.646;23.642;2022-12-16T02:47:31;37.33;;;14.88;;
56752;SDS011;42627;42.646;23.642;2022-12-16T02:51:34;55.85;;;19.75;;
56752;SDS011;42627;42.646;23.642;2022-12-16T02:53:40;45.80;;;17.02;;
56752;SDS011;42627;42.646;23.642;2022-12-16T03:00:10;17.73;;;7.15;;
56752;SDS011;42627;42.646;23.642;2022-12-16T03:02:20;15.23;;;5.35;;
56752;SDS011;42627;42.646;23.642;2022-12-16T03:04:41;13.75;;;5.63;;
56752;SDS011;42627;42.646;23.642;2022-12-16T03:06:45;12.90;;;5.50;;
56752;SDS011;42627;42.646;23.642;2022-12-16T03:08:49;18.98;;;6.50;;
56752;SDS011;42627;42.646;23.642;2022-12-16T03:10:58;15.57;;;7.60;;
56752;SDS011;42627;42.646;23.642;2022-12-16T03:13:00;17.90;;;6.15;;
56752;SDS011;42627;42.646;23.642;2022-12-16T03:15:02;11.68;;;5.50;;
56752;SDS011;42627;42.646;23.642;2022-12-16T03:17:03;15.98;;;6.95;;
56752;SDS011;42627;42.646;23.642;2022-12-16T03:19:06;18.70;;;6.30;;
56752;SDS011;42627;42.646;23.642;2022-12-16T03:21:08;15.07;;;6.70;;
56752;SDS011;42627;42.646;23.642;2022-12-16T03:23:13;17.58;;;7.63;;
56752;SDS011;42627;42.646;23.642;2022-12-16T03:25:15;14.13;;;6.93;;
56752;SDS011;42627;42.646;23.642;2022-12-16T03:27:22;11.13;;;5.97;;
56752;SDS011;42627;42.646;23.642;2022-12-16T03:29:35;14.82;;;7.10;;
56752;SDS011;42627;42.646;23.642;2022-12-16T03:31:53;11.00;;;5.13;;
56752;SDS011;42627;42.646;23.642;2022-12-16T03:34:01;12.55;;;5.38;;
56752;SDS011;42627;42.646;23.642;2022-12-16T03:36:11;11.85;;;5.35;;
56752;SDS011;42627;42.646;23.642;2022-12-16T03:38:15;15.70;;;5.95;;
56752;SDS011;42627;42.646;23.642;2022-12-16T03:40:16;17.70;;;6.90;;
56752;SDS011;42627;42.646;23.642;2022-12-16T03:42:17;17.02;;;7.18;;
56752;SDS011;42627;42.646;23.642;2022-12-16T03:44:19;21.85;;;8.30;;
56752;SDS011;42627;42.646;23.642;2022-12-16T03:46:20;23.02;;;11.23;;
56752;SDS011;42627;42.646;23.642;2022-12-16T03:48:22;22.88;;;9.70;;
56752;SDS011;42627;42.646;23.642;2022-12-16T03:50:25;17.38;;;7.57;;
56752;SDS011;42627;42.646;23.642;2022-12-16T03:52:30;18.52;;;7.72;;
56752;SDS011;42627;42.646;23.642;2022-12-16T03:54:31;17.80;;;8.55;;
56752;SDS011;42627;42.646;23.642;2022-12-16T03:56:32;15.32;;;7.70;;
56752;SDS011;42627;42.646;23.642;2022-12-16T03:58:33;17.83;;;6.88;;
56752;SDS011;42627;42.646;23.642;2022-12-16T04:00:34;16.92;;;6.55;;
56752;SDS011;42627;42.646;23.642;2022-12-16T04:02:35;22.75;;;11.02;;
56752;SDS011;42627;42.646;23.642;2022-12-16T04:04:36;14.25;;;5.93;;
56752;SDS011;42627;42.646;23.642;2022-12-16T04:06:37;11.75;;;6.07;;
56752;SDS011;42627;42.646;23.642;2022-12-16T04:08:38;20.95;;;7.90;;
56752;SDS011;42627;42.646;23.642;2022-12-16T04:10:39;12.80;;;6.68;;
56752;SDS011;42627;42.646;23.642;2022-12-16T04:12:59;14.90;;;5.38;;
56752;SDS011;42627;42.646;23.642;2022-12-16T04:15:18;15.02;;;6.47;;
56752;SDS011;42627;42.646;23.642;2022-12-16T04:17:38;10.98;;;5.15;;
56752;SDS011;42627;42.646;23.642;2022-12-16T04:19:58;16.77;;;7.10;;
56752;SDS011;42627;42.646;23.642;2022-12-16T04:22:27;22.02;;;7.40;;
56752;SDS011;42627;42.646;23.642;2022-12-16T04:24:47;12.90;;;6.03;;
56752;SDS011;42627;42.646;23.642;2022-12-16T04:26:48;16.42;;;6.75;;
56752;SDS011;42627;42.646;23.642;2022-12-16T04:29:08;15.23;;;5.65;;
56752;SDS011;42627;42.646;23.642;2022-12-16T04:31:09;19.70;;;8.38;;
56752;SDS011;42627;42.646;23.642;2022-12-16T04:33:11;15.13;;;7.88;;
56752;SDS011;42627;42.646;23.642;2022-12-16T04:35:31;11.35;;;5.32;;
56752;SDS011;42627;42.646;23.642;2022-12-16T04:37:50;15.43;;;6.32;;
56752;SDS011;42627;42.646;23.642;2022-12-16T04:40:10;9.48;;;5.18;;
56752;SDS011;42627;42.646;23.642;2022-12-16T04:42:30;16.02;;;6.03;;
56752;SDS011;42627;42.646;23.642;2022-12-16T04:44:50;14.35;;;6.75;;
56752;SDS011;42627;42.646;23.642;2022-12-16T04:47:10;11.95;;;5.30;;
56752;SDS011;42627;42.646;23.642;2022-12-16T04:49:29;10.07;;;5.47;;
56752;SDS011;42627;42.646;23.642;2022-12-16T04:51:52;15.80;;;6.60;;
56752;SDS011;42627;42.646;23.642;2022-12-16T04:54:12;14.55;;;6.30;;
56752;SDS011;42627;42.646;23.642;2022-12-16T04:56:31;18.50;;;6.55;;
56752;SDS011;42627;42.646;23.642;2022-12-16T04:58:51;14.68;;;6.47;;
56752;SDS011;42627;42.646;23.642;2022-12-16T05:01:10;11.95;;;5.35;;
56752;SDS011;42627;42.646;23.642;2022-12-16T05:03:30;14.93;;;5.70;;
56752;SDS011;42627;42.646;23.642;2022-12-16T05:05:50;15.80;;;5.88;;
56752;SDS011;42627;42.646;23.642;2022-12-16T05:08:09;23.17;;;9.52;;
56752;SDS011;42627;42.646;23.642;2022-12-16T05:10:29;12.38;;;5.85;;
56752;SDS011;42627;42.646;23.642;2022-12-16T05:12:48;13.68;;;5.90;;
56752;SDS011;42627;42.646;23.642;2022-12-16T05:15:10;12.05;;;6.57;;
56752;SDS011;42627;42.646;23.642;2022-12-16T05:17:29;12.02;;;4.82;;
56752;SDS011;42627;42.646;23.642;2022-12-16T05:19:49;17.30;;;6.20;;
56752;SDS011;42627;42.646;23.642;2022-12-16T05:22:09;15.07;;;6.53;;
56752;SDS011;42627;42.646;23.642;2022-12-16T05:24:29;16.95;;;8.23;;
56752;SDS011;42627;42.646;23.642;2022-12-16T05:26:49;15.57;;;5.93;;
56752;SDS011;42627;42.646;23.642;2022-12-16T05:29:09;16.10;;;6.20;;
56752;SDS011;42627;42.646;23.642;2022-12-16T05:31:28;18.48;;;8.25;;
56752;SDS011;42627;42.646;23.642;2022-12-16T05:33:48;17.70;;;9.05;;
56752;SDS011;42627;42.646;23.642;2022-12-16T05:36:08;11.40;;;6.40;;
56752;SDS011;42627;42.646;23.642;2022-12-16T05:38:28;14.30;;;6.32;;
56752;SDS011;42627;42.646;23.642;2022-12-16T05:40:47;15.13;;;7.90;;
56752;SDS011;42627;42.646;23.642;2022-12-16T05:43:07;14.13;;;8.23;;
56752;SDS011;42627;42.646;23.642;2022-12-16T05:45:26;12.25;;;6.00;;
56752;SDS011;42627;42.646;23.642;2022-12-16T05:47:46;12.25;;;6.40;;
56752;SDS011;42627;42.646;23.642;2022-12-16T05:50:06;11.10;;;5.93;;
56752;SDS011;42627;42.646;23.642;2022-12-16T05:52:26;12.25;;;6.05;;
56752;SDS011;42627;42.646;23.642;2022-12-16T05:54:47;15.63;;;6.05;;
56752;SDS011;42627;42.646;23.642;2022-12-16T05:57:07;15.02;;;6.13;;
56752;SDS011;42627;42.646;23.642;2022-12-16T05:59:26;10.88;;;5.35;;
56752;SDS011;42627;42.646;23.642;2022-12-16T06:01:46;13.27;;;6.22;;
56752;SDS011;42627;42.646;23.642;2022-12-16T06:04:05;11.63;;;5.95;;
56752;SDS011;42627;42.646;23.642;2022-12-16T06:06:25;15.77;;;6.78;;
56752;SDS011;42627;42.646;23.642;2022-12-16T06:08:54;13.60;;;5.72;;
56752;SDS011;42627;42.646;23.642;2022-12-16T06:11:13;22.27;;;8.00;;
56752;SDS011;42627;42.646;23.642;2022-12-16T06:13:33;19.98;;;6.32;;
56752;SDS011;42627;42.646;23.642;2022-12-16T06:15:52;13.50;;;6.63;;
56752;SDS011;42627;42.646;23.642;2022-12-16T06:18:12;17.70;;;7.10;;
56752;SDS011;42627;42.646;23.642;2022-12-16T06:20:31;19.02;;;6.25;;
56752;SDS011;42627;42.646;23.642;2022-12-16T06:22:51;18.40;;;6.70;;
56752;SDS011;42627;42.646;23.642;2022-12-16T06:25:11;14.82;;;5.97;;
56752;SDS011;42627;42.646;23.642;2022-12-16T06:27:31;14.20;;;5.97;;
56752;SDS011;42627;42.646;23.642;2022-12-16T06:29:51;19.40;;;7.47;;
56752;SDS011;42627;42.646;23.642;2022-12-16T06:32:10;12.10;;;6.25;;
56752;SDS011;42627;42.646;23.642;2022-12-16T06:34:30;28.70;;;9.02;;
56752;SDS011;42627;42.646;23.642;2022-12-16T06:36:50;27.77;;;8.68;;
56752;SDS011;42627;42.646;23.642;2022-12-16T06:39:09;26.55;;;11.70;;
56752;SDS011;42627;42.646;23.642;2022-12-16T06:41:29;17.42;;;6.90;;
56752;SDS011;42627;42.646;23.642;2022-12-16T06:43:49;14.93;;;5.82;;
56752;SDS011;42627;42.646;23.642;2022-12-16T06:46:08;14.02;;;5.78;;
56752;SDS011;42627;42.646;23.642;2022-12-16T06:48:28;15.60;;;6.15;;
56752;SDS011;42627;42.646;23.642;2022-12-16T06:50:47;12.30;;;4.68;;
56752;SDS011;42627;42.646;23.642;2022-12-16T06:53:08;11.43;;;5.45;;
56752;SDS011;42627;42.646;23.642;2022-12-16T06:55:28;12.98;;;5.50;;
56752;SDS011;42627;42.646;23.642;2022-12-16T06:57:48;11.25;;;5.20;;
56752;SDS011;42627;42.646;23.642;2022-12-16T07:00:07;11.63;;;5.95;;
56752;SDS011;42627;42.646;23.642;2022-12-16T07:02:28;18.08;;;7.20;;
56752;SDS011;42627;42.646;23.642;2022-12-16T07:04:49;27.42;;;9.93;;
56752;SDS011;42627;42.646;23.642;2022-12-16T07:07:09;12.07;;;5.97;;
56752;SDS011;42627;42.646;23.642;2022-12-16T07:09:29;19.67;;;7.68;;
56752;SDS011;42627;42.646;23.642;2022-12-16T07:11:48;16.70;;;6.78;;
56752;SDS011;42627;42.646;23.642;2022-12-16T07:14:08;22.80;;;7.78;;
56752;SDS011;42627;42.646;23.642;2022-12-16T07:16:28;22.67;;;6.93;;
56752;SDS011;42627;42.646;23.642;2022-12-16T07:18:47;45.58;;;12.15;;
56752;SDS011;42627;42.646;23.642;2022-12-16T07:21:07;20.92;;;8.50;;
56752;SDS011;42627;42.646;23.642;2022-12-16T07:23:26;11.23;;;4.50;;
56752;SDS011;42627;42.646;23.642;2022-12-16T07:25:46;16.00;;;6.88;;
56752;SDS011;42627;42.646;23.642;2022-12-16T07:28:06;12.98;;;4.72;;
56752;SDS011;42627;42.646;23.642;2022-12-16T07:30:25;15.93;;;5.38;;
56752;SDS011;42627;42.646;23.642;2022-12-16T07:32:48;13.90;;;5.75;;
56752;SDS011;42627;42.646;23.642;2022-12-16T07:35:07;15.82;;;5.40;;
56752;SDS011;42627;42.646;23.642;2022-12-16T07:37:28;12.82;;;5.32;;
56752;SDS011;42627;42.646;23.642;2022-12-16T07:39:51;13.98;;;5.25;;
56752;SDS011;42627;42.646;23.642;2022-12-16T07:42:10;11.43;;;4.63;;
56752;SDS011;42627;42.646;23.642;2022-12-16T07:44:30;12.73;;;5.55;;
56752;SDS011;42627;42.646;23.642;2022-12-16T07:46:49;13.30;;;4.95;;
56752;SDS011;42627;42.646;23.642;2022-12-16T07:49:09;8.52;;;4.45;;
56752;SDS011;42627;42.646;23.642;2022-12-16T07:51:28;9.75;;;4.22;;
56752;SDS011;42627;42.646;23.642;2022-12-16T07:53:48;12.02;;;5.30;;
56752;SDS011;42627;42.646;23.642;2022-12-16T07:56:08;10.80;;;4.68;;
56752;SDS011;42627;42.646;23.642;2022-12-16T07:58:28;11.38;;;5.60;;
56752;SDS011;42627;42.646;23.642;2022-12-16T08:01:06;7.38;;;4.90;;
56752;SDS011;42627;42.646;23.642;2022-12-16T08:03:27;12.23;;;5.03;;
56752;SDS011;42627;42.646;23.642;2022-12-16T08:05:47;17.48;;;6.30;;
56752;SDS011;42627;42.646;23.642;2022-12-16T08:08:07;11.07;;;4.93;;
56752;SDS011;42627;42.646;23.642;2022-12-16T08:10:26;20.35;;;7.63;;
56752;SDS011;42627;42.646;23.642;2022-12-16T08:12:46;12.55;;;5.75;;
56752;SDS011;42627;42.646;23.642;2022-12-16T08:15:06;10.20;;;5.47;;
56752;SDS011;42627;42.646;23.642;2022-12-16T08:17:26;10.93;;;4.78;;
56752;SDS011;42627;42.646;23.642;2022-12-16T08:19:45;13.50;;;4.63;;
56752;SDS011;42627;42.646;23.642;2022-12-16T08:22:05;10.52;;;4.97;;
56752;SDS011;42627;42.646;23.642;2022-12-16T08:24:24;9.93;;;5.05;;
56752;SDS011;42627;42.646;23.642;2022-12-16T08:26:44;15.63;;;5.88;;
56752;SDS011;42627;42.646;23.642;2022-12-16T08:29:04;11.27;;;5.70;;
56752;SDS011;42627;42.646;23.642;2022-12-16T08:31:23;15.02;;;5.55;;
56752;SDS011;42627;42.646;23.642;2022-12-16T08:33:43;12.45;;;5.45;;
56752;SDS011;42627;42.646;23.642;2022-12-16T08:36:02;15.52;;;4.78;;
56752;SDS011;42627;42.646;23.642;2022-12-16T08:38:22;13.82;;;5.63;;
56752;SDS011;42627;42.646;23.642;2022-12-16T08:40:42;11.43;;;6.03;;
56752;SDS011;42627;42.646;23.642;2022-12-16T08:43:02;12.55;;;5.53;;
56752;SDS011;42627;42.646;23.642;2022-12-16T08:45:21;16.52;;;6.35;;
56752;SDS011;42627;42.646;23.642;2022-12-16T08:47:41;12.32;;;6.05;;
56752;SDS011;42627;42.646;23.642;2022-12-16T08:50:01;35.38;;;11.65;;
56752;SDS011;42627;42.646;23.642;2022-12-16T08:52:21;12.77;;;5.10;;
56752;SDS011;42627;42.646;23.642;2022-12-16T08:54:40;17.67;;;7.57;;
56752;SDS011;42627;42.646;23.642;2022-12-16T08:57:10;14.82;;;6.05;;
56752;SDS011;42627;42.646;23.642;2022-12-16T08:59:30;15.80;;;5.95;;
56752;SDS011;42627;42.646;23.642;2022-12-16T09:01:49;15.43;;;6.35;;
56752;SDS011;42627;42.646;23.642;2022-12-16T09:04:09;12.50;;;4.82;;
56752;SDS011;42627;42.646;23.642;2022-12-16T09:06:29;13.95;;;6.20;;
56752;SDS011;42627;42.646;23.642;2022-12-16T09:08:48;14.52;;;6.15;;
56752;SDS011;42627;42.646;23.642;2022-12-16T09:11:08;8.43;;;3.83;;
56752;SDS011;42627;42.646;23.642;2022-12-16T09:13:27;12.23;;;6.80;;
56752;SDS011;42627;42.646;23.642;2022-12-16T09:15:47;20.50;;;8.18;;
56752;SDS011;42627;42.646;23.642;2022-12-16T09:18:06;15.13;;;6.50;;
56752;SDS011;42627;42.646;23.642;2022-12-16T09:20:26;12.70;;;5.18;;
56752;SDS011;42627;42.646;23.642;2022-12-16T09:22:46;12.93;;;4.93;;
56752;SDS011;42627;42.646;23.642;2022-12-16T09:25:05;12.75;;;5.63;;
56752;SDS011;42627;42.646;23.642;2022-12-16T09:27:25;13.48;;;4.40;;
56752;SDS011;42627;42.646;23.642;2022-12-16T09:29:45;9.75;;;4.32;;
56752;SDS011;42627;42.646;23.642;2022-12-16T09:32:04;11.05;;;4.22;;
56752;SDS011;42627;42.646;23.642;2022-12-16T09:34:24;8.68;;;4.38;;
56752;SDS011;42627;42.646;23.642;2022-12-16T09:36:44;8.80;;;4.47;;
56752;SDS011;42627;42.646;23.642;2022-12-16T09:39:03;10.18;;;4.30;;
56752;SDS011;42627;42.646;23.642;2022-12-16T09:43:53;10.88;;;4.75;;
56752;SDS011;42627;42.646;23.642;2022-12-16T09:48:59;9.50;;;4.93;;
56752;SDS011;42627;42.646;23.642;2022-12-16T09:51:21;11.98;;;4.35;;
56752;SDS011;42627;42.646;23.642;2022-12-16T09:53:43;10.10;;;4.30;;
56752;SDS011;42627;42.646;23.642;2022-12-16T09:56:04;11.63;;;5.10;;
56752;SDS011;42627;42.646;23.642;2022-12-16T09:58:25;9.95;;;4.28;;
56752;SDS011;42627;42.646;23.642;2022-12-16T10:00:46;8.70;;;4.80;;
56752;SDS011;42627;42.646;23.642;2022-12-16T10:03:12;12.80;;;4.80;;
56752;SDS011;42627;42.646;23.642;2022-12-16T10:05:37;12.68;;;5.00;;
56752;SDS011;42627;42.646;23.642;2022-12-16T10:08:03;9.52;;;4.90;;
56752;SDS011;42627;42.646;23.642;2022-12-16T10:13:13;18.30;;;5.65;;
56752;SDS011;42627;42.646;23.642;2022-12-16T10:20:58;10.30;;;4.63;;
56752;SDS011;42627;42.646;23.642;2022-12-16T10:25:58;16.45;;;5.88;;
56752;SDS011;42627;42.646;23.642;2022-12-16T10:31:01;12.25;;;5.22;;
56752;SDS011;42627;42.646;23.642;2022-12-16T10:33:22;9.07;;;4.55;;
56752;SDS011;42627;42.646;23.642;2022-12-16T10:35:47;10.82;;;4.57;;
56752;SDS011;42627;42.646;23.642;2022-12-16T10:40:49;8.10;;;4.10;;
56752;SDS011;42627;42.646;23.642;2022-12-16T10:43:10;11.63;;;4.13;;
56752;SDS011;42627;42.646;23.642;2022-12-16T10:45:50;10.57;;;4.25;;
56752;SDS011;42627;42.646;23.642;2022-12-16T10:48:11;9.00;;;4.25;;
56752;SDS011;42627;42.646;23.642;2022-12-16T10:50:31;11.45;;;4.65;;
56752;SDS011;42627;42.646;23.642;2022-12-16T11:00:18;7.30;;;3.28;;
56752;SDS011;42627;42.646;23.642;2022-12-16T11:02:38;9.25;;;3.70;;
56752;SDS011;42627;42.646;23.642;2022-12-16T11:04:58;9.43;;;3.95;;
56752;SDS011;42627;42.646;23.642;2022-12-16T11:07:23;7.78;;;4.05;;
56752;SDS011;42627;42.646;23.642;2022-12-16T11:09:43;8.68;;;4.25;;
56752;SDS011;42627;42.646;23.642;2022-12-16T11:12:13;9.45;;;3.47;;
56752;SDS011;42627;42.646;23.642;2022-12-16T11:14:33;9.23;;;3.75;;
56752;SDS011;42627;42.646;23.642;2022-12-16T11:17:09;10.02;;;3.55;;
56752;SDS011;42627;42.646;23.642;2022-12-16T11:19:29;7.95;;;3.70;;
56752;SDS011;42627;42.646;23.642;2022-12-16T11:21:49;10.90;;;4.78;;
56752;SDS011;42627;42.646;23.642;2022-12-16T11:26:28;9.73;;;3.72;;
56752;SDS011;42627;42.646;23.642;2022-12-16T11:31:22;11.50;;;4.25;;
56752;SDS011;42627;42.646;23.642;2022-12-16T11:33:42;8.20;;;3.25;;
56752;SDS011;42627;42.646;23.642;2022-12-16T11:36:09;8.43;;;3.85;;
56752;SDS011;42627;42.646;23.642;2022-12-16T11:40:59;9.98;;;3.47;;
56752;SDS011;42627;42.646;23.642;2022-12-16T11:43:18;9.85;;;4.13;;
56752;SDS011;42627;42.646;23.642;2022-12-16T11:45:39;7.60;;;2.92;;
56752;SDS011;42627;42.646;23.642;2022-12-16T11:50:40;6.63;;;3.63;;
56752;SDS011;42627;42.646;23.642;2022-12-16T11:53:00;7.85;;;3.30;;
56752;SDS011;42627;42.646;23.642;2022-12-16T11:55:27;6.03;;;2.97;;
56752;SDS011;42627;42.646;23.642;2022-12-16T12:17:23;10.77;;;4.65;;
56752;SDS011;42627;42.646;23.642;2022-12-16T12:20:01;12.18;;;4.43;;
56752;SDS011;42627;42.646;23.642;2022-12-16T12:22:35;9.15;;;3.38;;
56752;SDS011;42627;42.646;23.642;2022-12-16T12:25:04;11.98;;;4.13;;
56752;SDS011;42627;42.646;23.642;2022-12-16T12:27:46;10.23;;;4.78;;
56752;SDS011;42627;42.646;23.642;2022-12-16T12:30:12;32.35;;;8.75;;
56752;SDS011;42627;42.646;23.642;2022-12-16T12:38:08;10.25;;;4.43;;
56752;SDS011;42627;42.646;23.642;2022-12-16T12:42:53;9.75;;;4.18;;
56752;SDS011;42627;42.646;23.642;2022-12-16T12:48:01;5.68;;;3.08;;
56752;SDS011;42627;42.646;23.642;2022-12-16T12:50:28;6.78;;;3.40;;
56752;SDS011;42627;42.646;23.642;2022-12-16T13:00:32;9.60;;;4.07;;
56752;SDS011;42627;42.646;23.642;2022-12-16T13:05:15;8.98;;;4.32;;
56752;SDS011;42627;42.646;23.642;2022-12-16T13:07:37;9.32;;;4.18;;
56752;SDS011;42627;42.646;23.642;2022-12-16T13:10:16;8.68;;;4.50;;
56752;SDS011;42627;42.646;23.642;2022-12-16T13:12:48;9.52;;;4.10;;
56752;SDS011;42627;42.646;23.642;2022-12-16T13:15:34;7.18;;;3.83;;
56752;SDS011;42627;42.646;23.642;2022-12-16T13:20:35;9.43;;;3.65;;
56752;SDS011;42627;42.646;23.642;2022-12-16T13:27:55;10.57;;;4.55;;
56752;SDS011;42627;42.646;23.642;2022-12-16T13:32:46;8.90;;;4.95;;
56752;SDS011;42627;42.646;23.642;2022-12-16T13:40:21;14.23;;;5.53;;
56752;SDS011;42627;42.646;23.642;2022-12-16T13:45:07;10.52;;;4.88;;
56752;SDS011;42627;42.646;23.642;2022-12-16T13:52:55;11.10;;;4.07;;
56752;SDS011;42627;42.646;23.642;2022-12-16T13:58:15;13.57;;;5.88;;
56752;SDS011;42627;42.646;23.642;2022-12-16T14:00:47;17.67;;;7.50;;
56752;SDS011;42627;42.646;23.642;2022-12-16T14:05:51;10.45;;;5.25;;
56752;SDS011;42627;42.646;23.642;2022-12-16T14:08:17;9.05;;;4.18;;
56752;SDS011;42627;42.646;23.642;2022-12-16T14:10:59;11.98;;;4.85;;
56752;SDS011;42627;42.646;23.642;2022-12-16T14:16:00;12.32;;;5.80;;
56752;SDS011;42627;42.646;23.642;2022-12-16T14:21:10;13.07;;;5.25;;
56752;SDS011;42627;42.646;23.642;2022-12-16T14:26:37;9.55;;;5.43;;
56752;SDS011;42627;42.646;23.642;2022-12-16T14:28:57;14.35;;;4.53;;
56752;SDS011;42627;42.646;23.642;2022-12-16T14:31:21;8.63;;;4.05;;
56752;SDS011;42627;42.646;23.642;2022-12-16T14:33:41;11.02;;;4.22;;
56752;SDS011;42627;42.646;23.642;2022-12-16T14:38:45;7.25;;;4.18;;
56752;SDS011;42627;42.646;23.642;2022-12-16T14:41:06;7.90;;;3.08;;
56752;SDS011;42627;42.646;23.642;2022-12-16T14:43:28;12.88;;;5.20;;
56752;SDS011;42627;42.646;23.642;2022-12-16T14:46:05;14.75;;;5.65;;
56752;SDS011;42627;42.646;23.642;2022-12-16T14:56:55;15.10;;;5.88;;
56752;SDS011;42627;42.646;23.642;2022-12-16T14:59:43;11.50;;;6.25;;
56752;SDS011;42627;42.646;23.642;2022-12-16T15:04:26;11.65;;;4.85;;
56752;SDS011;42627;42.646;23.642;2022-12-16T15:06:53;13.00;;;4.78;;
56752;SDS011;42627;42.646;23.642;2022-12-16T15:12:00;14.93;;;5.40;;
56752;SDS011;42627;42.646;23.642;2022-12-16T15:14:28;14.48;;;5.78;;
56752;SDS011;42627;42.646;23.642;2022-12-16T15:16:48;12.82;;;5.95;;
56752;SDS011;42627;42.646;23.642;2022-12-16T15:19:08;19.20;;;7.10;;
56752;SDS011;42627;42.646;23.642;2022-12-16T15:21:33;21.50;;;8.02;;
56752;SDS011;42627;42.646;23.642;2022-12-16T15:23:53;17.88;;;7.82;;
56752;SDS011;42627;42.646;23.642;2022-12-16T15:28:41;11.80;;;5.03;;
56752;SDS011;42627;42.646;23.642;2022-12-16T15:31:04;14.63;;;6.90;;
56752;SDS011;42627;42.646;23.642;2022-12-16T15:33:37;15.57;;;7.85;;
56752;SDS011;42627;42.646;23.642;2022-12-16T15:36:06;12.27;;;5.20;;
56752;SDS011;42627;42.646;23.642;2022-12-16T15:38:33;12.20;;;7.28;;
56752;SDS011;42627;42.646;23.642;2022-12-16T15:40:53;13.23;;;6.78;;
56752;SDS011;42627;42.646;23.642;2022-12-16T15:46:01;9.23;;;3.70;;
56752;SDS011;42627;42.646;23.642;2022-12-16T15:48:31;7.78;;;4.43;;
56752;SDS011;42627;42.646;23.642;2022-12-16T15:50:54;14.45;;;5.20;;
56752;SDS011;42627;42.646;23.642;2022-12-16T15:53:32;13.65;;;5.53;;
56752;SDS011;42627;42.646;23.642;2022-12-16T15:56:14;25.85;;;10.57;;
56752;SDS011;42627;42.646;23.642;2022-12-16T15:58:34;11.80;;;5.05;;
56752;SDS011;42627;42.646;23.642;2022-12-16T16:03:36;27.83;;;11.18;;
56752;SDS011;42627;42.646;23.642;2022-12-16T16:06:27;20.48;;;10.35;;
56752;SDS011;42627;42.646;23.642;2022-12-16T16:08:52;34.05;;;14.65;;
56752;SDS011;42627;42.646;23.642;2022-12-16T16:11:21;21.05;;;8.73;;
56752;SDS011;42627;42.646;23.642;2022-12-16T16:13:56;19.20;;;7.75;;
56752;SDS011;42627;42.646;23.642;2022-12-16T16:16:18;12.32;;;5.60;;
56752;SDS011;42627;42.646;23.642;2022-12-16T16:18:38;13.82;;;7.15;;